Time;durP1;ratioP1;P1;durP2;ratioP2;P2;SDS_P1;SDS_P2;PMS_P1;PMS_P2;Temp;Humidity;BMP_temperature;BMP_pressure;BME280_temperature;BME280_humidity;BME280_pressure;Samples;Min_cycle;Max_cycle;Signal;HPM_P1;HPM_P2
2023/04/17 00:00:00;;;;;;;16.87;12.30;;;10.50;99.90;;;;;;20757330;28;20637;-72
2023/04/17 00:10:02;;;;;;;19.30;12.23;;;10.40;99.90;;;;;;20755135;28;20275;-72
2023/04/17 00:20:11;;;;;;;19.63;12.13;;;10.30;99.90;;;;;;20755602;28;20242;-72
2023/04/17 00:30:12;;;;;;;18.00;11.93;;;10.30;99.90;;;;;;20755216;28;20249;-71
2023/04/17 00:40:14;;;;;;;18.10;12.50;;;10.20;99.90;;;;;;20754257;28;20241;-71
2023/04/17 00:50:16;;;;;;;16.73;11.27;;;10.10;99.90;;;;;;20753626;28;20216;-71
2023/04/17 01:00:18;;;;;;;14.30;11.50;;;10.10;99.90;;;;;;20752728;28;20237;-72
2023/04/17 01:10:19;;;;;;;17.30;11.97;;;10.20;99.90;;;;;;20751679;28;20204;-71
2023/04/17 01:20:22;;;;;;;15.60;11.10;;;10.10;99.90;;;;;;20750848;28;20233;-71
2023/04/17 01:30:23;;;;;;;16.57;11.53;;;10.00;99.90;;;;;;20751246;28;20244;-71
2023/04/17 01:40:25;;;;;;;18.97;11.30;;;10.10;99.90;;;;;;20749653;28;20234;-71
2023/04/17 01:50:26;;;;;;;16.87;11.50;;;10.10;99.90;;;;;;20749192;28;20217;-71
2023/04/17 02:00:28;;;;;;;16.63;11.87;;;10.00;99.90;;;;;;20748587;28;20229;-72
2023/04/17 02:10:30;;;;;;;17.23;11.53;;;10.00;99.90;;;;;;20748661;28;20573;-71
2023/04/17 02:20:33;;;;;;;18.60;12.03;;;9.90;99.90;;;;;;20747754;28;20241;-71
2023/04/17 02:30:35;;;;;;;17.00;11.73;;;9.90;99.90;;;;;;20752257;28;20234;-72
2023/04/17 02:40:37;;;;;;;17.63;11.63;;;9.90;99.90;;;;;;20763485;28;20242;-72
2023/04/17 02:50:38;;;;;;;18.07;12.43;;;10.00;99.90;;;;;;20762581;28;20209;-71
2023/04/17 03:00:40;;;;;;;15.97;11.43;;;10.00;99.90;;;;;;20761619;28;20235;-71
2023/04/17 03:10:42;;;;;;;16.50;11.40;;;10.00;99.90;;;;;;20761403;28;20666;-71
2023/04/17 03:20:43;;;;;;;17.33;11.77;;;10.00;99.90;;;;;;20760311;28;20238;-71
2023/04/17 03:30:45;;;;;;;16.10;11.70;;;9.90;99.90;;;;;;20759236;28;20759;-71
2023/04/17 03:40:47;;;;;;;17.87;12.23;;;10.00;99.90;;;;;;20757744;28;20246;-71
2023/04/17 03:50:50;;;;;;;16.70;12.40;;;10.00;99.90;;;;;;20757735;28;20209;-72
2023/04/17 04:00:54;;;;;;;16.30;11.40;;;10.00;99.90;;;;;;20757038;28;20300;-71
2023/04/17 04:10:56;;;;;;;13.93;11.17;;;;;;;;;;20756680;28;20216;-71
2023/04/17 04:20:58;;;;;;;18.27;11.93;;;9.80;99.90;;;;;;20755879;28;20307;-72
2023/04/17 04:31:01;;;;;;;15.93;11.80;;;9.90;99.90;;;;;;20757023;28;20255;-71
2023/04/17 04:41:08;;;;;;;18.97;10.70;;;9.90;99.90;;;;;;20754625;28;20328;-71
2023/04/17 04:51:10;;;;;;;15.03;10.40;;;9.80;99.90;;;;;;20752600;28;20209;-71
2023/04/17 05:01:12;;;;;;;14.40;10.50;;;9.90;99.90;;;;;;20751904;28;20241;-71
2023/04/17 05:11:14;;;;;;;15.90;11.00;;;10.00;99.90;;;;;;20751630;28;20239;-71
2023/04/17 05:21:16;;;;;;;13.70;10.53;;;10.10;99.90;;;;;;20750580;28;20660;-71
2023/04/17 05:31:17;;;;;;;12.97;9.30;;;10.30;99.90;;;;;;20750390;28;20761;-71
2023/04/17 05:41:19;;;;;;;11.57;8.57;;;10.40;99.90;;;;;;20749596;28;20321;-72
2023/04/17 05:51:21;;;;;;;13.93;8.93;;;10.50;99.90;;;;;;20748631;28;20261;-72
2023/04/17 06:01:24;;;;;;;10.70;8.07;;;10.60;99.90;;;;;;20748029;28;20369;-71
2023/04/17 06:11:26;;;;;;;10.73;7.53;;;10.70;99.90;;;;;;20747251;28;20207;-72
2023/04/17 06:21:27;;;;;;;9.93;7.77;;;10.80;99.90;;;;;;20747121;28;20646;-71
2023/04/17 06:31:29;;;;;;;12.70;7.50;;;11.00;99.90;;;;;;20746498;28;20240;-71
2023/04/17 06:41:31;;;;;;;10.10;7.63;;;11.20;99.90;;;;;;20746926;28;20718;-71
2023/04/17 06:51:32;;;;;;;8.77;7.17;;;11.30;99.90;;;;;;20746148;28;20220;-71
2023/04/17 07:01:34;;;;;;;11.47;7.37;;;11.60;99.90;;;;;;20745634;28;20239;-72
2023/04/17 07:11:36;;;;;;;8.60;6.77;;;11.90;99.90;;;;;;20745556;28;20208;-72
2023/04/17 07:21:37;;;;;;;10.10;6.47;;;12.20;99.40;;;;;;20756470;28;20243;-72
2023/04/17 07:31:39;;;;;;;10.03;5.93;;;12.50;98.80;;;;;;20758693;28;20235;-71
2023/04/17 07:41:41;;;;;;;8.13;5.80;;;12.50;97.50;;;;;;20758329;28;20233;-72
2023/04/17 07:51:43;;;;;;;7.70;5.80;;;12.50;97.10;;;;;;20756983;28;20216;-71
2023/04/17 08:01:44;;;;;;;7.13;5.97;;;12.50;96.40;;;;;;20756413;28;20325;-71
2023/04/17 08:11:46;;;;;;;7.10;5.30;;;12.60;95.90;;;;;;20756484;28;20204;-71
2023/04/17 08:22:03;;;;;;;6.93;5.57;;;12.70;95.50;;;;;;20756108;28;20245;-72
2023/04/17 08:32:05;;;;;;;9.57;5.57;;;12.80;95.10;;;;;;20753875;28;20301;-72
2023/04/17 08:42:15;;;;;;;8.73;5.73;;;12.90;94.80;;;;;;20753581;28;20237;-71
2023/04/17 08:52:19;;;;;;;7.13;5.70;;;13.00;94.30;;;;;;20752465;28;20235;-72
2023/04/17 09:02:21;;;;;;;7.57;5.90;;;13.00;94.50;;;;;;20751674;28;20234;-71
2023/04/17 09:12:26;;;;;;;7.03;5.67;;;13.10;93.70;;;;;;20751946;28;20245;-71
2023/04/17 09:22:27;;;;;;;6.63;5.10;;;13.30;93.10;;;;;;20750406;28;20318;-71
2023/04/17 09:32:31;;;;;;;5.70;5.13;;;13.50;92.60;;;;;;20749968;28;20292;-71
2023/04/17 09:42:32;;;;;;;6.20;4.80;;;13.50;92.10;;;;;;20749364;28;20234;-71
2023/04/17 09:52:35;;;;;;;6.47;4.93;;;13.80;91.80;;;;;;20748668;28;20686;-72
2023/04/17 10:02:38;;;;;;;4.60;4.07;;;14.00;91.60;;;;;;20747978;28;20234;-71
2023/04/17 10:12:40;;;;;;;8.30;4.43;;;14.00;91.80;;;;;;20748500;28;20210;-72
2023/04/17 10:22:55;;;;;;;14.83;4.90;;;13.50;90.80;;;;;;20747394;28;20302;-72
2023/04/17 10:33:14;;;;;;;5.93;4.17;;;13.50;91.00;;;;;;20747003;28;20243;-71
2023/04/17 10:43:18;;;;;;;5.30;4.00;;;13.20;90.90;;;;;;20746876;28;20210;-71
2023/04/17 10:53:43;;;;;;;4.27;3.40;;;13.10;90.90;;;;;;20753339;28;20210;-71
2023/04/17 11:03:45;;;;;;;3.67;2.80;;;13.00;90.90;;;;;;20760944;28;20206;-71
2023/04/17 11:13:47;;;;;;;3.33;2.70;;;13.00;90.80;;;;;;20761228;28;20234;-72
2023/04/17 11:23:53;;;;;;;4.43;2.93;;;13.10;90.70;;;;;;20758692;28;20217;-72
2023/04/17 11:33:57;;;;;;;2.80;2.40;;;13.00;90.60;;;;;;20759252;28;20240;-71
2023/04/17 11:44:00;;;;;;;3.17;2.40;;;12.90;90.50;;;;;;20758807;28;20212;-71
2023/04/17 11:54:02;;;;;;;2.37;2.10;;;13.00;90.50;;;;;;20757543;28;20232;-71
2023/04/17 12:04:18;;;;;;;3.00;2.20;;;13.10;90.60;;;;;;20755763;28;20560;-71
2023/04/17 12:14:21;;;;;;;4.07;2.50;;;13.10;90.50;;;;;;20756000;28;20245;-76
2023/04/17 12:24:24;;;;;;;2.53;2.10;;;13.30;90.50;;;;;;20756495;28;20671;-71
2023/04/17 12:34:26;;;;;;;2.37;1.93;;;13.10;90.30;;;;;;20754582;28;20280;-71
2023/04/17 12:46:52;;;;;;;1.97;1.77;;;13.10;90.30;;;;;;20983836;28;21091;-70
2023/04/17 12:56:54;;;;;;;2.00;1.60;;;12.90;90.40;;;;;;20982819;28;20277;-70
2023/04/17 13:06:57;;;;;;;2.10;1.90;;;12.80;90.10;;;;;;20982119;28;20273;-69
2023/04/17 13:16:58;;;;;;;1.90;1.70;;;13.00;90.40;;;;;;20981014;28;20229;-70
2023/04/17 13:27:01;;;;;;;1.73;1.60;;;13.20;90.40;;;;;;20979747;28;20265;-74
2023/04/17 13:37:02;;;;;;;1.60;1.50;;;13.20;90.40;;;;;;20979513;28;20205;-69
2023/04/17 13:47:06;;;;;;;1.93;1.70;;;13.10;90.10;;;;;;20978634;28;20273;-69
2023/04/17 13:57:09;;;;;;;2.00;1.80;;;13.20;90.20;;;;;;20929507;28;20203;-69
2023/04/17 14:07:11;;;;;;;2.50;2.30;;;13.20;90.10;;;;;;20922836;28;20214;-70
2023/04/17 14:17:13;;;;;;;4.37;3.03;;;13.30;90.40;;;;;;20921910;28;20213;-69
2023/04/17 14:27:15;;;;;;;4.67;2.90;;;13.30;89.60;;;;;;20921904;28;20208;-70
2023/04/17 14:37:17;;;;;;;7.10;3.93;;;13.40;88.80;;;;;;20919901;28;20244;-70
2023/04/17 14:47:18;;;;;;;6.07;4.70;;;13.40;88.70;;;;;;20919853;28;20212;-69
2023/04/17 14:57:20;;;;;;;8.80;5.60;;;13.40;88.10;;;;;;20918989;28;20239;-69
2023/04/17 15:07:22;;;;;;;8.23;6.70;;;13.30;87.50;;;;;;20917109;28;20214;-70
2023/04/17 15:17:23;;;;;;;10.20;6.73;;;13.30;87.50;;;;;;20917186;28;20650;-70
2023/04/17 15:27:25;;;;;;;8.33;6.47;;;13.30;88.10;;;;;;20916841;28;20240;-70
2023/04/17 15:37:27;;;;;;;10.17;7.47;;;13.10;86.80;;;;;;20915092;28;20245;-70
2023/04/17 15:47:29;;;;;;;8.80;6.60;;;13.10;86.90;;;;;;20915033;28;20647;-69
2023/04/17 15:57:31;;;;;;;9.17;7.30;;;13.00;86.10;;;;;;20896005;28;20237;-69
2023/04/17 16:07:32;;;;;;;10.00;8.00;;;13.00;85.80;;;;;;20880875;28;20216;-68
2023/04/17 16:17:34;;;;;;;8.60;6.90;;;13.00;86.00;;;;;;20830591;28;20227;-67
2023/04/17 16:27:36;;;;;;;10.97;8.33;;;13.10;85.90;;;;;;20830654;28;20203;-69
2023/04/17 16:37:38;;;;;;;9.20;7.97;;;13.10;85.90;;;;;;20829047;28;20233;-67
2023/04/17 16:47:40;;;;;;;10.10;7.57;;;13.20;85.80;;;;;;20829527;28;20239;-68
2023/04/17 16:57:43;;;;;;;10.83;7.93;;;13.20;86.30;;;;;;20828719;28;20233;-65
2023/04/17 17:07:44;;;;;;;9.90;8.30;;;13.20;85.00;;;;;;20828562;28;20723;-65
2023/04/17 17:17:46;;;;;;;10.33;8.03;;;13.10;85.20;;;;;;20828262;28;20701;-67
2023/04/17 17:33:50;;;;;;;10.83;8.33;;;13.00;85.60;;;;;;21068016;28;20567;-69
2023/04/17 17:43:54;;;;;;;10.03;8.77;;;12.80;85.60;;;;;;21067095;28;20663;-69
2023/04/17 17:53:57;;;;;;;10.83;8.60;;;;;;;;;;21066604;28;20208;-67
2023/04/17 18:03:58;;;;;;;12.20;8.80;;;12.60;86.20;;;;;;21065109;28;20212;-68
2023/04/17 18:14:00;;;;;;;12.13;9.70;;;12.50;86.50;;;;;;21062952;28;20573;-68
2023/04/17 18:24:02;;;;;;;12.40;9.73;;;12.40;87.20;;;;;;21062427;28;20295;-66
2023/04/17 18:34:04;;;;;;;11.87;9.87;;;12.20;87.70;;;;;;21061262;28;20214;-68
2023/04/17 18:44:06;;;;;;;13.23;10.27;;;;;;;;;;21009853;28;20260;-66
2023/04/17 18:54:07;;;;;;;13.37;10.50;;;12.00;89.00;;;;;;21005553;28;20210;-65
2023/04/17 19:04:10;;;;;;;15.27;9.80;;;12.00;89.30;;;;;;21003746;28;20623;-68
2023/04/17 19:14:12;;;;;;;14.10;10.60;;;12.00;89.20;;;;;;20990598;28;20691;-67
2023/04/17 19:24:14;;;;;;;13.30;10.27;;;12.00;89.10;;;;;;20964243;28;20705;-68
2023/04/17 19:34:16;;;;;;;16.67;10.40;;;11.80;89.90;;;;;;20959523;28;20208;-71
2023/04/17 19:44:18;;;;;;;10.93;9.10;;;11.40;89.10;;;;;;20918252;28;20228;-69
2023/04/17 19:54:19;;;;;;;12.60;9.90;;;11.30;89.20;;;;;;20982535;28;20281;-67
2023/04/17 20:04:21;;;;;;;13.73;10.20;;;11.10;89.20;;;;;;20999739;28;20261;-68
2023/04/17 20:14:24;;;;;;;17.77;10.00;;;11.00;89.20;;;;;;20999178;28;20218;-67
2023/04/17 20:24:26;;;;;;;14.33;10.27;;;10.90;89.10;;;;;;20965939;28;20232;-68
2023/04/17 20:34:27;;;;;;;13.43;10.50;;;10.70;89.50;;;;;;20914707;28;20221;-69
2023/04/17 20:44:30;;;;;;;15.47;10.53;;;10.50;89.50;;;;;;20913725;28;20242;-65
2023/04/17 20:54:32;;;;;;;15.77;11.47;;;10.30;90.30;;;;;;20913714;28;20204;-67
2023/04/17 21:04:34;;;;;;;18.33;11.17;;;10.30;90.30;;;;;;20910830;28;20240;-66
2023/04/17 21:14:36;;;;;;;16.20;10.77;;;9.90;91.20;;;;;;20912198;28;20292;-66
2023/04/17 21:24:37;;;;;;;16.17;11.00;;;9.70;91.60;;;;;;20911720;28;20232;-66
2023/04/17 21:34:40;;;;;;;12.83;10.87;;;9.60;91.80;;;;;;20909762;28;20208;-68
2023/04/17 21:44:41;;;;;;;14.93;11.43;;;9.40;92.00;;;;;;20909592;28;20223;-67
2023/04/17 21:54:43;;;;;;;13.73;11.70;;;9.20;92.20;;;;;;20910692;28;20230;-67
2023/04/17 22:04:45;;;;;;;17.67;11.13;;;9.10;92.60;;;;;;20909782;28;20691;-68
2023/04/17 22:14:47;;;;;;;15.93;11.50;;;9.10;92.90;;;;;;20916095;28;20621;-65
2023/04/17 22:24:49;;;;;;;17.50;12.17;;;9.00;93.00;;;;;;20924863;28;20297;-66
2023/04/17 22:34:50;;;;;;;17.97;12.97;;;8.90;93.10;;;;;;20924222;28;20213;-66
2023/04/17 22:44:52;;;;;;;17.83;12.90;;;8.70;93.20;;;;;;20923188;28;20235;-66
2023/04/17 22:54:54;;;;;;;20.63;13.87;;;8.70;93.40;;;;;;20922881;28;20215;-67
2023/04/17 23:04:56;;;;;;;20.83;13.70;;;8.50;93.50;;;;;;20922056;28;20758;-70
2023/04/17 23:14:57;;;;;;;16.53;13.03;;;8.50;93.70;;;;;;20921206;28;20621;-69
2023/04/17 23:24:59;;;;;;;20.87;14.33;;;8.50;93.80;;;;;;20920803;28;20251;-67
2023/04/17 23:35:01;;;;;;;19.47;13.73;;;8.40;93.80;;;;;;20920262;28;20689;-66
2023/04/17 23:45:03;;;;;;;20.93;14.17;;;8.30;93.90;;;;;;20919457;28;20236;-66
2023/04/17 23:55:05;;;;;;;18.17;13.20;;;8.30;94.00;;;;;;20918420;28;20215;-69
